Time,TemperatureF,DewpointF,PressureIn,WindDirection,WindDirectionDegrees,WindSpeedMPH,WindSpeedGustMPH,Humidity,HourlyPrecipIn,Conditions,Clouds,dailyrainin,SolarRadiationWatts/m^2,SoftwareType,DateUTC
2013-10-04 00:36:00,58.2,57.0,30.07,SW,227,0.0,0.0,97,0.00,,,0.00,0,weatherlink.com 1.10,2013-10-04 04:36:00,
2013-10-04 00:51:00,58.1,57.0,30.06,SW,227,0.0,0.0,97,0.00,,,0.00,0,weatherlink.com 1.10,2013-10-04 04:51:00,
2013-10-04 01:07:00,57.5,57.0,30.06,SW,227,0.0,0.0,97,0.00,,,0.00,0,weatherlink.com 1.10,2013-10-04 05:07:00,
2013-10-04 01:36:00,57.2,56.0,30.06,SW,227,0.0,0.0,97,0.00,,,0.00,0,weatherlink.com 1.10,2013-10-04 05:36:00,
2013-10-04 01:51:00,57.0,56.0,30.06,SW,227,0.0,0.0,97,0.00,,,0.00,0,weatherlink.com 1.10,2013-10-04 05:51:00,
2013-10-04 02:06:00,56.8,56.0,30.06,SW,227,0.0,0.0,97,0.00,,,0.00,0,weatherlink.com 1.10,2013-10-04 06:06:00,
2013-10-04 02:21:00,56.8,56.0,30.06,SW,227,0.0,0.0,97,0.00,,,0.00,0,weatherlink.com 1.10,2013-10-04 06:21:00,
2013-10-04 02:36:00,56.6,56.0,30.05,SW,227,0.0,0.0,97,0.00,,,0.00,0,weatherlink.com 1.10,2013-10-04 06:36:00,
2013-10-04 02:51:00,56.6,56.0,30.05,SW,227,0.0,0.0,98,0.00,,,0.00,0,weatherlink.com 1.10,2013-10-04 06:51:00,
2013-10-04 03:07:00,56.3,56.0,30.05,SW,227,0.0,0.0,97,0.00,,,0.00,0,weatherlink.com 1.10,2013-10-04 07:07:00,
2013-10-04 03:22:00,56.2,56.0,30.05,SW,227,0.0,0.0,98,0.00,,,0.00,0,weatherlink.com 1.10,2013-10-04 07:22:00,
2013-10-04 03:37:00,56.1,56.0,30.05,SW,227,0.0,0.0,98,0.00,,,0.00,0,weatherlink.com 1.10,2013-10-04 07:37:00,
2013-10-04 03:52:00,56.0,56.0,30.05,SW,227,0.0,0.0,98,0.00,,,0.00,0,weatherlink.com 1.10,2013-10-04 07:52:00,
2013-10-04 04:07:00,55.9,55.0,30.05,SW,227,0.0,0.0,98,0.00,,,0.00,0,weatherlink.com 1.10,2013-10-04 08:07:00,
2013-10-04 04:22:00,55.7,55.0,30.05,SW,227,0.0,0.0,98,0.00,,,0.00,0,weatherlink.com 1.10,2013-10-04 08:22:00,
2013-10-04 04:37:00,55.6,55.0,30.05,SW,227,0.0,0.0,98,0.00,,,0.00,0,weatherlink.com 1.10,2013-10-04 08:37:00,
2013-10-04 04:52:00,55.6,55.0,30.05,SW,227,0.0,0.0,98,0.00,,,0.00,0,weatherlink.com 1.10,2013-10-04 08:52:00,
2013-10-04 05:07:00,55.6,55.0,30.05,SW,227,0.0,0.0,98,0.00,,,0.00,0,weatherlink.com 1.10,2013-10-04 09:07:00,
2013-10-04 05:22:00,55.5,55.0,30.05,SW,227,0.0,0.0,98,0.00,,,0.00,0,weatherlink.com 1.10,2013-10-04 09:22:00,
2013-10-04 05:37:00,55.4,55.0,30.05,SW,227,0.0,0.0,98,0.00,,,0.00,0,weatherlink.com 1.10,2013-10-04 09:37:00,
2013-10-04 05:52:00,55.5,55.0,30.05,SW,227,0.0,0.0,98,0.00,,,0.00,0,weatherlink.com 1.10,2013-10-04 09:52:00,
2013-10-04 06:07:00,55.5,55.0,30.05,SW,227,0.0,0.0,98,0.00,,,0.00,0,weatherlink.com 1.10,2013-10-04 10:07:00,
2013-10-04 06:22:00,55.3,55.0,30.05,SW,227,0.0,0.0,98,0.00,,,0.00,0,weatherlink.com 1.10,2013-10-04 10:22:00,
2013-10-04 06:37:00,55.3,55.0,30.06,SW,227,0.0,0.0,98,0.00,,,0.00,0,weatherlink.com 1.10,2013-10-04 10:37:00,
2013-10-04 06:52:00,55.0,55.0,30.06,SW,227,0.0,0.0,98,0.00,,,0.00,0,weatherlink.com 1.10,2013-10-04 10:52:00,
2013-10-04 07:07:00,55.6,55.0,30.07,SW,227,0.0,0.0,98,0.00,,,0.00,5,weatherlink.com 1.10,2013-10-04 11:07:00,
2013-10-04 07:22:00,55.9,55.0,30.07,SW,227,0.0,0.0,98,0.00,,,0.00,14,weatherlink.com 1.10,2013-10-04 11:22:00,
2013-10-04 07:37:00,56.6,56.0,30.07,SW,227,0.0,0.0,98,0.00,,,0.00,28,weatherlink.com 1.10,2013-10-04 11:37:00,
2013-10-04 07:52:00,57.1,57.0,30.07,SW,227,0.0,0.0,98,0.00,,,0.00,40,weatherlink.com 1.10,2013-10-04 11:52:00,
2013-10-04 08:07:00,57.4,57.0,30.07,SW,227,0.0,0.0,98,0.00,,,0.00,54,weatherlink.com 1.10,2013-10-04 12:07:00,
2013-10-04 08:22:00,59.3,59.0,30.07,SW,227,0.0,0.0,98,0.00,,,0.00,141,weatherlink.com 1.10,2013-10-04 12:22:00,
2013-10-04 08:37:00,60.1,60.0,30.07,SW,227,0.0,0.0,98,0.00,,,0.00,181,weatherlink.com 1.10,2013-10-04 12:37:00,
2013-10-04 08:52:00,62.8,62.0,30.07,SW,227,0.0,0.0,98,0.00,,,0.00,223,weatherlink.com 1.10,2013-10-04 12:52:00,
2013-10-04 09:07:00,65.9,65.0,30.07,SW,227,0.0,1.0,98,0.00,,,0.00,271,weatherlink.com 1.10,2013-10-04 13:07:00,
2013-10-04 09:22:00,67.8,66.0,30.07,SW,227,0.0,5.0,93,0.00,,,0.00,325,weatherlink.com 1.10,2013-10-04 13:22:00,
2013-10-04 09:37:00,70.4,67.0,30.07,SW,227,0.0,2.0,89,0.00,,,0.00,359,weatherlink.com 1.10,2013-10-04 13:37:00,
2013-10-04 09:52:00,72.0,67.0,30.07,SW,227,2.0,3.0,85,0.00,,,0.00,404,weatherlink.com 1.10,2013-10-04 13:52:00,
2013-10-04 10:08:00,73.7,68.0,30.07,SW,227,0.0,5.0,83,0.00,,,0.00,404,weatherlink.com 1.10,2013-10-04 14:08:00,
2013-10-04 10:23:00,75.4,69.0,30.07,SW,227,1.0,4.0,80,0.00,,,0.00,455,weatherlink.com 1.10,2013-10-04 14:23:00,
2013-10-04 10:38:00,76.2,69.0,30.06,SSW,193,0.0,7.0,77,0.00,,,0.00,497,weatherlink.com 1.10,2013-10-04 14:38:00,
2013-10-04 10:53:00,77.3,68.0,30.06,SW,217,5.0,7.0,74,0.00,,,0.00,524,weatherlink.com 1.10,2013-10-04 14:53:00,
2013-10-04 11:08:00,78.3,69.0,30.05,West,263,2.0,5.0,73,0.00,,,0.00,547,weatherlink.com 1.10,2013-10-04 15:08:00,
2013-10-04 11:23:00,79.6,69.0,30.05,SW,227,0.0,8.0,70,0.00,,,0.00,564,weatherlink.com 1.10,2013-10-04 15:23:00,
2013-10-04 11:38:00,79.9,69.0,30.05,SSW,213,4.0,7.0,69,0.00,,,0.00,584,weatherlink.com 1.10,2013-10-04 15:38:00,
2013-10-04 11:53:00,80.2,69.0,30.04,WSW,252,2.0,6.0,68,0.00,,,0.00,592,weatherlink.com 1.10,2013-10-04 15:53:00,
2013-10-04 12:08:00,81.6,69.0,30.04,West,262,4.0,6.0,65,0.00,,,0.00,606,weatherlink.com 1.10,2013-10-04 16:08:00,
2013-10-04 12:23:00,81.6,68.0,30.04,WSW,251,2.0,10.0,63,0.00,,,0.00,610,weatherlink.com 1.10,2013-10-04 16:23:00,
2013-10-04 12:38:00,83.1,68.0,30.03,SSW,196,1.0,7.0,61,0.00,,,0.00,619,weatherlink.com 1.10,2013-10-04 16:38:00,
2013-10-04 12:53:00,83.0,68.0,30.02,West,281,3.0,7.0,60,0.00,,,0.00,621,weatherlink.com 1.10,2013-10-04 16:53:00,
2013-10-04 13:08:00,84.2,68.0,30.02,SW,223,2.0,7.0,58,0.00,,,0.00,624,weatherlink.com 1.10,2013-10-04 17:08:00,
2013-10-04 13:23:00,83.7,68.0,30.01,SW,228,2.0,6.0,59,0.00,,,0.00,613,weatherlink.com 1.10,2013-10-04 17:23:00,
2013-10-04 14:08:00,84.7,67.0,29.99,WSW,237,2.0,7.0,56,0.00,,,0.00,605,weatherlink.com 1.10,2013-10-04 18:08:00,
2013-10-04 14:23:00,84.3,67.0,29.99,WSW,238,2.0,7.0,56,0.00,,,0.00,577,weatherlink.com 1.10,2013-10-04 18:23:00,
2013-10-04 14:38:00,85.1,70.0,29.98,SW,229,1.0,8.0,60,0.00,,,0.00,592,weatherlink.com 1.10,2013-10-04 18:38:00,
2013-10-04 14:53:00,84.7,68.0,29.98,SW,217,1.0,8.0,58,0.00,,,0.00,522,weatherlink.com 1.10,2013-10-04 18:53:00,
2013-10-04 15:08:00,84.1,67.0,29.98,West,261,0.0,9.0,57,0.00,,,0.00,490,weatherlink.com 1.10,2013-10-04 19:08:00,
2013-10-04 15:23:00,84.6,67.0,29.98,SSW,207,1.0,9.0,56,0.00,,,0.00,448,weatherlink.com 1.10,2013-10-04 19:23:00,
2013-10-04 15:38:00,84.6,68.0,29.98,West,261,3.0,8.0,58,0.00,,,0.00,403,weatherlink.com 1.10,2013-10-04 19:38:00,
2013-10-04 15:53:00,84.1,67.0,29.97,SSW,202,4.0,8.0,56,0.00,,,0.00,387,weatherlink.com 1.10,2013-10-04 19:53:00,
2013-10-04 16:08:00,84.7,69.0,29.97,SW,225,2.0,4.0,59,0.00,,,0.00,366,weatherlink.com 1.10,2013-10-04 20:08:00,
2013-10-04 16:23:00,83.1,67.0,29.98,WSW,239,0.0,5.0,59,0.00,,,0.00,183,weatherlink.com 1.10,2013-10-04 20:23:00,
2013-10-04 16:39:00,83.8,67.0,29.97,SW,236,7.0,8.0,58,0.00,,,0.00,345,weatherlink.com 1.10,2013-10-04 20:39:00,
2013-10-04 16:54:00,84.0,69.0,29.97,West,275,3.0,7.0,60,0.00,,,0.00,267,weatherlink.com 1.10,2013-10-04 20:54:00,
2013-10-04 17:09:00,82.1,68.0,29.97,West,270,0.0,1.0,62,0.00,,,0.00,107,weatherlink.com 1.10,2013-10-04 21:09:00,
2013-10-04 17:24:00,80.5,68.0,29.97,WNW,288,0.0,3.0,65,0.00,,,0.00,44,weatherlink.com 1.10,2013-10-04 21:24:00,
2013-10-04 17:39:00,78.5,68.0,29.98,WNW,288,0.0,0.0,70,0.00,,,0.00,44,weatherlink.com 1.10,2013-10-04 21:39:00,
2013-10-04 17:54:00,76.6,68.0,29.98,WNW,288,0.0,0.0,74,0.00,,,0.00,35,weatherlink.com 1.10,2013-10-04 21:54:00,
2013-10-04 18:09:00,75.2,68.0,29.98,WNW,288,0.0,0.0,79,0.00,,,0.00,25,weatherlink.com 1.10,2013-10-04 22:09:00,
2013-10-04 18:24:00,73.9,69.0,29.98,WNW,288,0.0,0.0,83,0.00,,,0.00,11,weatherlink.com 1.10,2013-10-04 22:24:00,
2013-10-04 18:39:00,72.6,69.0,29.98,WNW,288,0.0,0.0,87,0.00,,,0.00,0,weatherlink.com 1.10,2013-10-04 22:39:00,
2013-10-04 18:54:00,71.3,68.0,29.99,WNW,288,0.0,0.0,89,0.00,,,0.00,0,weatherlink.com 1.10,2013-10-04 22:54:00,
2013-10-04 19:09:00,70.2,68.0,29.98,WNW,288,0.0,0.0,91,0.00,,,0.00,0,weatherlink.com 1.10,2013-10-04 23:09:00,
2013-10-04 19:24:00,69.9,67.0,29.98,WNW,288,0.0,0.0,91,0.00,,,0.00,0,weatherlink.com 1.10,2013-10-04 23:24:00,
2013-10-04 19:39:00,68.8,66.0,29.98,WNW,288,0.0,0.0,92,0.00,,,0.00,0,weatherlink.com 1.10,2013-10-04 23:39:00,
2013-10-04 19:54:00,68.1,66.0,29.99,WNW,288,0.0,0.0,93,0.00,,,0.00,0,weatherlink.com 1.10,2013-10-04 23:54:00,
2013-10-04 20:09:00,67.5,66.0,29.99,WNW,288,0.0,0.0,94,0.00,,,0.00,0,weatherlink.com 1.10,2013-10-05 00:09:00,
2013-10-04 20:24:00,67.0,66.0,30.00,WNW,288,0.0,0.0,95,0.00,,,0.00,0,weatherlink.com 1.10,2013-10-05 00:24:00,
2013-10-04 20:39:00,66.5,65.0,30.00,WNW,288,0.0,0.0,95,0.00,,,0.00,0,weatherlink.com 1.10,2013-10-05 00:39:00,
2013-10-04 20:54:00,66.3,65.0,30.01,WNW,288,0.0,0.0,95,0.00,,,0.00,0,weatherlink.com 1.10,2013-10-05 00:54:00,
2013-10-04 21:09:00,66.0,65.0,30.01,WNW,288,0.0,0.0,95,0.00,,,0.00,0,weatherlink.com 1.10,2013-10-05 01:09:00,
2013-10-04 21:24:00,65.7,65.0,30.01,WNW,288,0.0,0.0,96,0.00,,,0.00,0,weatherlink.com 1.10,2013-10-05 01:24:00,
2013-10-04 21:39:00,65.3,64.0,30.02,WNW,288,0.0,0.0,96,0.00,,,0.00,0,weatherlink.com 1.10,2013-10-05 01:39:00,
2013-10-04 21:54:00,64.9,64.0,30.01,WNW,288,0.0,0.0,96,0.00,,,0.00,0,weatherlink.com 1.10,2013-10-05 01:54:00,
2013-10-04 22:09:00,64.6,64.0,30.01,WNW,288,0.0,0.0,97,0.00,,,0.00,0,weatherlink.com 1.10,2013-10-05 02:09:00,
2013-10-04 22:24:00,64.4,64.0,30.01,WNW,288,0.0,0.0,97,0.00,,,0.00,0,weatherlink.com 1.10,2013-10-05 02:24:00,
2013-10-04 22:39:00,63.6,63.0,30.01,WNW,288,0.0,1.0,96,0.00,,,0.00,0,weatherlink.com 1.10,2013-10-05 02:39:00,
2013-10-04 22:54:00,64.0,63.0,30.01,WNW,288,0.0,0.0,97,0.00,,,0.00,0,weatherlink.com 1.10,2013-10-05 02:54:00,
2013-10-04 23:09:00,63.9,63.0,30.02,WNW,288,0.0,1.0,97,0.00,,,0.00,0,weatherlink.com 1.10,2013-10-05 03:09:00,
2013-10-04 23:24:00,63.7,63.0,30.01,WNW,288,0.0,0.0,97,0.00,,,0.00,0,weatherlink.com 1.10,2013-10-05 03:24:00,
2013-10-04 23:39:00,63.2,62.0,30.01,WNW,288,0.0,0.0,97,0.00,,,0.00,0,weatherlink.com 1.10,2013-10-05 03:39:00,
2013-10-04 23:54:00,63.2,62.0,30.01,WNW,288,0.0,0.0,97,0.00,,,0.00,0,weatherlink.com 1.10,2013-10-05 03:54:00,